Overview Statistics Trail Chart Weather Telemetry Raw packets
 

This is the latest recevied weather packets stored in our database for station/object s59zo-6. If no packets are shown the sender has not sent any weather packets the latest 10 day(s).

<< 88 89 90 91 92 93 94 >>
Time Temp. Humidity Pressure Rain* Wind** Luminosity Snow
1787952605 20.56° C 86% 1018.5 hPa 3.05 mm - - -
1787952304 21.11° C 85% 1018.8 hPa 3.05 mm - - -
1787952005 21.67° C 83% 1019.2 hPa 3.05 mm - - -
1787951705 22.22° C 81% 1019.5 hPa 2.79 mm - - -
1787951406 25° C 72% 1020.6 hPa 1.27 mm - - -
1787951104 25.56° C 71% 1019.4 hPa 0 mm - - -
1787950806 25° C 71% 1019 hPa 0 mm - - -
1787950510 25° C 71% 1018.9 hPa 0 mm - - -
1787950205 25° C 71% 1018.1 hPa 0 mm - - -
1787949905 25° C 71% 1018 hPa 0 mm - - -
1787949605 25° C 70% 1017.7 hPa 0 mm - - -
1787949304 25° C 70% 1017.3 hPa 0 mm - - -
1787949005 25° C 70% 1017.5 hPa 0 mm - - -
1787948705 25° C 70% 1017.3 hPa 0 mm - - -
1787948405 25° C 70% 1017.1 hPa 0 mm - - -
1787948105 25° C 70% 1017.1 hPa 0 mm - - -
1787947805 25.56° C 69% 1017.3 hPa 0 mm - - -
1787947504 25.56° C 68% 1017.1 hPa 0 mm - - -
1787947213 25.56° C 68% 1017 hPa 0 mm - - -
1787946904 25.56° C 68% 1017 hPa 0 mm - - -
1787946606 25.56° C 68% 1017.1 hPa 0 mm - - -
1787946305 25.56° C 67% 1017 hPa 0 mm - - -
1787946006 25.56° C 67% 1016.9 hPa 0 mm - - -
1787945705 25.56° C 66% 1017.2 hPa 0 mm - - -
1787945405 25.56° C 66% 1017.1 hPa 0 mm - - -

* Rain latest hour (hover to see other rain measurements)
** Current wind speed in m/s (hover to see current wind gust speed)